sensor_id;sensor_type;location;lat;lon;timestamp;temperature;humidity
13174;DHT22;6652;48.802;9.190;2023-09-19T00:00:07;18.60;99.90
13174;DHT22;6652;48.802;9.190;2023-09-19T00:02:34;18.60;99.90
13174;DHT22;6652;48.802;9.190;2023-09-19T00:05:02;18.50;99.90
13174;DHT22;6652;48.802;9.190;2023-09-19T00:07:30;18.50;99.90
13174;DHT22;6652;48.802;9.190;2023-09-19T00:10:00;18.50;99.90
13174;DHT22;6652;48.802;9.190;2023-09-19T00:12:28;18.40;99.90
13174;DHT22;6652;48.802;9.190;2023-09-19T00:14:56;19.00;99.90
13174;DHT22;6652;48.802;9.190;2023-09-19T00:17:23;18.40;99.90
13174;DHT22;6652;48.802;9.190;2023-09-19T00:19:50;18.50;99.90
13174;DHT22;6652;48.802;9.190;2023-09-19T00:22:18;18.50;99.90
13174;DHT22;6652;48.802;9.190;2023-09-19T00:24:45;18.40;99.90
13174;DHT22;6652;48.802;9.190;2023-09-19T00:27:12;18.80;99.90
13174;DHT22;6652;48.802;9.190;2023-09-19T00:29:39;18.30;99.90
13174;DHT22;6652;48.802;9.190;2023-09-19T00:32:08;18.40;99.90
13174;DHT22;6652;48.802;9.190;2023-09-19T00:34:35;18.30;99.90
13174;DHT22;6652;48.802;9.190;2023-09-19T00:37:04;18.30;99.90
13174;DHT22;6652;48.802;9.190;2023-09-19T00:39:30;18.30;99.90
13174;DHT22;6652;48.802;9.190;2023-09-19T00:41:58;18.30;99.90
13174;DHT22;6652;48.802;9.190;2023-09-19T00:44:30;18.30;99.90
13174;DHT22;6652;48.802;9.190;2023-09-19T00:46:57;18.30;99.90
13174;DHT22;6652;48.802;9.190;2023-09-19T00:49:26;18.10;99.90
13174;DHT22;6652;48.802;9.190;2023-09-19T00:51:53;18.10;99.90
13174;DHT22;6652;48.802;9.190;2023-09-19T00:54:20;18.10;99.90
13174;DHT22;6652;48.802;9.190;2023-09-19T00:56:47;18.10;99.90
13174;DHT22;6652;48.802;9.190;2023-09-19T00:59:16;18.10;99.90
13174;DHT22;6652;48.802;9.190;2023-09-19T01:01:43;18.00;99.90
13174;DHT22;6652;48.802;9.190;2023-09-19T01:04:11;18.00;99.90
13174;DHT22;6652;48.802;9.190;2023-09-19T01:06:40;18.10;99.90
13174;DHT22;6652;48.802;9.190;2023-09-19T01:09:07;18.00;99.90
13174;DHT22;6652;48.802;9.190;2023-09-19T01:11:37;18.00;99.90
13174;DHT22;6652;48.802;9.190;2023-09-19T01:14:14;18.00;99.90
13174;DHT22;6652;48.802;9.190;2023-09-19T01:16:50;17.90;99.90
13174;DHT22;6652;48.802;9.190;2023-09-19T01:19:44;18.00;99.90
13174;DHT22;6652;48.802;9.190;2023-09-19T01:22:28;18.10;99.90
13174;DHT22;6652;48.802;9.190;2023-09-19T01:25:26;17.90;99.90
13174;DHT22;6652;48.802;9.190;2023-09-19T01:28:16;17.90;99.90
13174;DHT22;6652;48.802;9.190;2023-09-19T01:30:52;18.00;99.90
13174;DHT22;6652;48.802;9.190;2023-09-19T01:33:20;18.00;99.90
13174;DHT22;6652;48.802;9.190;2023-09-19T01:35:48;18.00;99.90
13174;DHT22;6652;48.802;9.190;2023-09-19T01:38:16;18.00;99.90
13174;DHT22;6652;48.802;9.190;2023-09-19T01:40:57;18.10;99.90
13174;DHT22;6652;48.802;9.190;2023-09-19T01:43:29;18.00;99.90
13174;DHT22;6652;48.802;9.190;2023-09-19T01:46:09;18.00;99.90
13174;DHT22;6652;48.802;9.190;2023-09-19T01:48:41;18.00;99.90
13174;DHT22;6652;48.802;9.190;2023-09-19T01:51:14;18.00;99.90
13174;DHT22;6652;48.802;9.190;2023-09-19T01:53:48;18.10;99.90
13174;DHT22;6652;48.802;9.190;2023-09-19T01:56:31;18.00;99.90
13174;DHT22;6652;48.802;9.190;2023-09-19T01:59:02;18.00;99.90
13174;DHT22;6652;48.802;9.190;2023-09-19T02:01:32;18.20;99.90
13174;DHT22;6652;48.802;9.190;2023-09-19T02:04:00;18.00;99.90
13174;DHT22;6652;48.802;9.190;2023-09-19T02:06:28;18.00;99.90
13174;DHT22;6652;48.802;9.190;2023-09-19T02:08:55;18.00;99.90
13174;DHT22;6652;48.802;9.190;2023-09-19T02:11:22;17.90;99.90
13174;DHT22;6652;48.802;9.190;2023-09-19T02:13:49;18.40;99.90
13174;DHT22;6652;48.802;9.190;2023-09-19T02:16:19;18.00;99.90
13174;DHT22;6652;48.802;9.190;2023-09-19T02:18:48;17.90;99.90
13174;DHT22;6652;48.802;9.190;2023-09-19T02:21:15;17.90;99.90
13174;DHT22;6652;48.802;9.190;2023-09-19T02:23:42;17.90;99.90
13174;DHT22;6652;48.802;9.190;2023-09-19T02:26:09;17.80;99.90
13174;DHT22;6652;48.802;9.190;2023-09-19T02:28:37;17.80;99.90
13174;DHT22;6652;48.802;9.190;2023-09-19T02:31:04;17.80;99.90
13174;DHT22;6652;48.802;9.190;2023-09-19T02:33:31;17.80;99.90
13174;DHT22;6652;48.802;9.190;2023-09-19T02:36:00;17.80;99.90
13174;DHT22;6652;48.802;9.190;2023-09-19T02:38:29;17.70;99.90
13174;DHT22;6652;48.802;9.190;2023-09-19T02:40:56;17.70;99.90
13174;DHT22;6652;48.802;9.190;2023-09-19T02:43:23;17.70;99.90
13174;DHT22;6652;48.802;9.190;2023-09-19T02:45:51;17.60;99.90
13174;DHT22;6652;48.802;9.190;2023-09-19T02:48:19;17.60;99.90
13174;DHT22;6652;48.802;9.190;2023-09-19T02:50:46;17.50;99.90
13174;DHT22;6652;48.802;9.190;2023-09-19T02:53:14;17.50;99.90
13174;DHT22;6652;48.802;9.190;2023-09-19T02:55:41;17.60;99.90
13174;DHT22;6652;48.802;9.190;2023-09-19T02:58:08;17.70;99.90
13174;DHT22;6652;48.802;9.190;2023-09-19T03:00:37;17.70;99.90
13174;DHT22;6652;48.802;9.190;2023-09-19T03:03:04;17.70;99.90
13174;DHT22;6652;48.802;9.190;2023-09-19T03:05:32;17.70;99.90
13174;DHT22;6652;48.802;9.190;2023-09-19T03:07:59;17.70;99.90
13174;DHT22;6652;48.802;9.190;2023-09-19T03:10:28;17.80;99.90
13174;DHT22;6652;48.802;9.190;2023-09-19T03:12:56;17.70;99.90
13174;DHT22;6652;48.802;9.190;2023-09-19T03:15:23;17.70;99.90
13174;DHT22;6652;48.802;9.190;2023-09-19T03:17:50;17.80;99.90
13174;DHT22;6652;48.802;9.190;2023-09-19T03:20:18;17.70;99.90
13174;DHT22;6652;48.802;9.190;2023-09-19T03:22:46;17.80;99.90
13174;DHT22;6652;48.802;9.190;2023-09-19T03:25:13;17.90;99.90
13174;DHT22;6652;48.802;9.190;2023-09-19T03:27:42;17.80;99.90
13174;DHT22;6652;48.802;9.190;2023-09-19T03:30:09;17.80;99.90
13174;DHT22;6652;48.802;9.190;2023-09-19T03:32:44;17.80;99.90
13174;DHT22;6652;48.802;9.190;2023-09-19T03:35:11;17.70;99.90
13174;DHT22;6652;48.802;9.190;2023-09-19T03:37:39;17.80;99.90
13174;DHT22;6652;48.802;9.190;2023-09-19T03:40:07;17.80;99.90
13174;DHT22;6652;48.802;9.190;2023-09-19T03:42:38;17.70;99.90
13174;DHT22;6652;48.802;9.190;2023-09-19T03:45:07;17.80;99.90
13174;DHT22;6652;48.802;9.190;2023-09-19T03:47:37;17.80;99.90
13174;DHT22;6652;48.802;9.190;2023-09-19T03:50:05;17.80;99.90
13174;DHT22;6652;48.802;9.190;2023-09-19T03:52:32;17.80;99.90
13174;DHT22;6652;48.802;9.190;2023-09-19T03:54:59;17.70;99.90
13174;DHT22;6652;48.802;9.190;2023-09-19T03:57:26;17.70;99.90
13174;DHT22;6652;48.802;9.190;2023-09-19T03:59:53;17.70;99.90
13174;DHT22;6652;48.802;9.190;2023-09-19T04:02:21;17.70;99.90
13174;DHT22;6652;48.802;9.190;2023-09-19T04:04:50;17.70;99.90
13174;DHT22;6652;48.802;9.190;2023-09-19T04:07:17;17.80;99.90
13174;DHT22;6652;48.802;9.190;2023-09-19T04:09:44;17.70;99.90
13174;DHT22;6652;48.802;9.190;2023-09-19T04:12:11;17.70;99.90
13174;DHT22;6652;48.802;9.190;2023-09-19T04:14:38;17.60;99.90
13174;DHT22;6652;48.802;9.190;2023-09-19T04:17:05;17.60;99.90
13174;DHT22;6652;48.802;9.190;2023-09-19T04:19:33;17.60;99.90
13174;DHT22;6652;48.802;9.190;2023-09-19T04:22:00;17.60;99.90
13174;DHT22;6652;48.802;9.190;2023-09-19T04:24:26;17.50;99.90
13174;DHT22;6652;48.802;9.190;2023-09-19T04:26:53;17.60;99.90
13174;DHT22;6652;48.802;9.190;2023-09-19T04:29:20;17.60;99.90
13174;DHT22;6652;48.802;9.190;2023-09-19T04:31:47;17.60;99.90
13174;DHT22;6652;48.802;9.190;2023-09-19T04:34:14;17.60;99.90
13174;DHT22;6652;48.802;9.190;2023-09-19T04:36:44;17.70;99.90
13174;DHT22;6652;48.802;9.190;2023-09-19T04:39:11;17.70;99.90
13174;DHT22;6652;48.802;9.190;2023-09-19T04:41:38;17.70;99.90
13174;DHT22;6652;48.802;9.190;2023-09-19T04:44:06;17.90;99.90
13174;DHT22;6652;48.802;9.190;2023-09-19T04:46:33;17.80;99.90
13174;DHT22;6652;48.802;9.190;2023-09-19T04:49:00;17.80;99.90
13174;DHT22;6652;48.802;9.190;2023-09-19T04:51:28;17.80;99.90
13174;DHT22;6652;48.802;9.190;2023-09-19T04:54:01;17.80;99.90
13174;DHT22;6652;48.802;9.190;2023-09-19T04:56:28;17.80;99.90
13174;DHT22;6652;48.802;9.190;2023-09-19T04:58:56;17.80;99.90
13174;DHT22;6652;48.802;9.190;2023-09-19T05:01:23;17.80;99.90
13174;DHT22;6652;48.802;9.190;2023-09-19T05:03:51;17.80;99.90
13174;DHT22;6652;48.802;9.190;2023-09-19T05:06:19;17.80;99.90
13174;DHT22;6652;48.802;9.190;2023-09-19T05:08:46;17.70;99.90
13174;DHT22;6652;48.802;9.190;2023-09-19T05:11:18;17.60;99.90
13174;DHT22;6652;48.802;9.190;2023-09-19T05:13:44;17.60;99.90
13174;DHT22;6652;48.802;9.190;2023-09-19T05:16:11;17.40;99.90
13174;DHT22;6652;48.802;9.190;2023-09-19T05:18:38;17.40;99.90
13174;DHT22;6652;48.802;9.190;2023-09-19T05:21:05;17.40;99.90
13174;DHT22;6652;48.802;9.190;2023-09-19T05:23:33;17.30;99.90
13174;DHT22;6652;48.802;9.190;2023-09-19T05:25:59;17.30;99.90
13174;DHT22;6652;48.802;9.190;2023-09-19T05:28:29;17.30;99.90
13174;DHT22;6652;48.802;9.190;2023-09-19T05:30:55;17.60;99.90
13174;DHT22;6652;48.802;9.190;2023-09-19T05:33:24;17.40;99.90
13174;DHT22;6652;48.802;9.190;2023-09-19T05:35:52;17.30;99.90
13174;DHT22;6652;48.802;9.190;2023-09-19T05:38:19;17.30;99.90
13174;DHT22;6652;48.802;9.190;2023-09-19T05:40:46;17.30;99.90
13174;DHT22;6652;48.802;9.190;2023-09-19T05:43:13;17.30;99.90
13174;DHT22;6652;48.802;9.190;2023-09-19T05:45:42;17.30;99.90
13174;DHT22;6652;48.802;9.190;2023-09-19T05:48:09;17.20;99.90
13174;DHT22;6652;48.802;9.190;2023-09-19T05:50:37;17.10;99.90
13174;DHT22;6652;48.802;9.190;2023-09-19T05:53:04;17.10;99.90
13174;DHT22;6652;48.802;9.190;2023-09-19T05:55:31;17.20;99.90
13174;DHT22;6652;48.802;9.190;2023-09-19T05:57:57;16.70;99.90
13174;DHT22;6652;48.802;9.190;2023-09-19T06:00:25;17.10;99.90
13174;DHT22;6652;48.802;9.190;2023-09-19T06:02:56;17.10;99.90
13174;DHT22;6652;48.802;9.190;2023-09-19T06:05:23;17.00;99.90
13174;DHT22;6652;48.802;9.190;2023-09-19T06:07:52;16.90;99.90
13174;DHT22;6652;48.802;9.190;2023-09-19T06:10:19;16.90;99.90
13174;DHT22;6652;48.802;9.190;2023-09-19T06:12:48;16.70;99.90
13174;DHT22;6652;48.802;9.190;2023-09-19T06:15:15;16.80;99.90
13174;DHT22;6652;48.802;9.190;2023-09-19T06:17:47;16.60;99.90
13174;DHT22;6652;48.802;9.190;2023-09-19T06:20:16;16.60;99.90
13174;DHT22;6652;48.802;9.190;2023-09-19T06:22:44;16.60;99.90
13174;DHT22;6652;48.802;9.190;2023-09-19T06:25:13;16.50;99.90
13174;DHT22;6652;48.802;9.190;2023-09-19T06:27:44;16.20;99.90
13174;DHT22;6652;48.802;9.190;2023-09-19T06:30:12;16.60;99.90
13174;DHT22;6652;48.802;9.190;2023-09-19T06:32:39;16.70;99.90
13174;DHT22;6652;48.802;9.190;2023-09-19T06:35:10;16.80;99.90
13174;DHT22;6652;48.802;9.190;2023-09-19T06:37:38;16.90;99.90
13174;DHT22;6652;48.802;9.190;2023-09-19T06:40:07;17.00;99.90
13174;DHT22;6652;48.802;9.190;2023-09-19T06:42:39;17.10;99.90
13174;DHT22;6652;48.802;9.190;2023-09-19T06:45:07;17.20;99.90
13174;DHT22;6652;48.802;9.190;2023-09-19T06:47:34;17.40;99.90
13174;DHT22;6652;48.802;9.190;2023-09-19T06:50:02;17.50;99.90
13174;DHT22;6652;48.802;9.190;2023-09-19T06:52:31;17.60;99.90
13174;DHT22;6652;48.802;9.190;2023-09-19T06:54:59;17.80;99.90
13174;DHT22;6652;48.802;9.190;2023-09-19T06:57:28;18.10;99.90
13174;DHT22;6652;48.802;9.190;2023-09-19T06:59:56;18.20;99.90
13174;DHT22;6652;48.802;9.190;2023-09-19T07:02:22;18.50;99.90
13174;DHT22;6652;48.802;9.190;2023-09-19T07:04:49;19.10;99.90
13174;DHT22;6652;48.802;9.190;2023-09-19T07:07:16;20.00;99.90
13174;DHT22;6652;48.802;9.190;2023-09-19T07:09:43;20.50;99.90
13174;DHT22;6652;48.802;9.190;2023-09-19T07:12:11;21.50;99.90
13174;DHT22;6652;48.802;9.190;2023-09-19T07:14:38;21.90;99.90
13174;DHT22;6652;48.802;9.190;2023-09-19T07:17:05;22.20;99.90
13174;DHT22;6652;48.802;9.190;2023-09-19T07:19:33;22.40;99.90
13174;DHT22;6652;48.802;9.190;2023-09-19T07:22:00;22.40;99.90
13174;DHT22;6652;48.802;9.190;2023-09-19T07:24:28;22.30;99.90
13174;DHT22;6652;48.802;9.190;2023-09-19T07:26:54;22.10;99.90
13174;DHT22;6652;48.802;9.190;2023-09-19T07:29:23;22.10;99.90
13174;DHT22;6652;48.802;9.190;2023-09-19T07:31:51;22.20;99.90
13174;DHT22;6652;48.802;9.190;2023-09-19T07:34:18;22.30;99.90
13174;DHT22;6652;48.802;9.190;2023-09-19T07:36:46;22.40;99.90
13174;DHT22;6652;48.802;9.190;2023-09-19T07:39:13;22.40;99.90
13174;DHT22;6652;48.802;9.190;2023-09-19T07:41:40;22.60;99.90
13174;DHT22;6652;48.802;9.190;2023-09-19T07:44:07;23.10;99.90
13174;DHT22;6652;48.802;9.190;2023-09-19T07:46:36;23.80;99.90
13174;DHT22;6652;48.802;9.190;2023-09-19T07:49:04;23.90;99.90
13174;DHT22;6652;48.802;9.190;2023-09-19T07:51:30;24.30;99.90
13174;DHT22;6652;48.802;9.190;2023-09-19T07:53:58;24.70;99.90
13174;DHT22;6652;48.802;9.190;2023-09-19T07:56:25;25.10;99.90
13174;DHT22;6652;48.802;9.190;2023-09-19T07:58:53;25.40;99.90
13174;DHT22;6652;48.802;9.190;2023-09-19T08:01:20;25.60;99.90
13174;DHT22;6652;48.802;9.190;2023-09-19T08:03:50;25.60;99.90
13174;DHT22;6652;48.802;9.190;2023-09-19T08:06:17;25.80;99.90
13174;DHT22;6652;48.802;9.190;2023-09-19T08:08:45;26.00;99.90
13174;DHT22;6652;48.802;9.190;2023-09-19T08:11:12;26.40;99.90
13174;DHT22;6652;48.802;9.190;2023-09-19T08:13:50;27.20;99.90
13174;DHT22;6652;48.802;9.190;2023-09-19T08:16:17;27.80;99.90
13174;DHT22;6652;48.802;9.190;2023-09-19T08:18:47;28.40;99.90
13174;DHT22;6652;48.802;9.190;2023-09-19T08:21:21;28.90;99.90
13174;DHT22;6652;48.802;9.190;2023-09-19T08:23:49;29.20;99.90
13174;DHT22;6652;48.802;9.190;2023-09-19T08:26:16;29.40;99.90
13174;DHT22;6652;48.802;9.190;2023-09-19T08:28:43;29.10;99.90
13174;DHT22;6652;48.802;9.190;2023-09-19T08:31:10;29.10;99.90
13174;DHT22;6652;48.802;9.190;2023-09-19T08:33:37;29.10;99.90
13174;DHT22;6652;48.802;9.190;2023-09-19T08:36:04;29.70;99.90
13174;DHT22;6652;48.802;9.190;2023-09-19T08:38:34;30.20;99.10
13174;DHT22;6652;48.802;9.190;2023-09-19T08:41:05;30.40;97.90
13174;DHT22;6652;48.802;9.190;2023-09-19T08:43:32;30.50;96.70
13174;DHT22;6652;48.802;9.190;2023-09-19T08:46:06;30.20;96.60
13174;DHT22;6652;48.802;9.190;2023-09-19T08:48:39;30.20;96.50
13174;DHT22;6652;48.802;9.190;2023-09-19T08:51:07;30.20;95.00
13174;DHT22;6652;48.802;9.190;2023-09-19T08:53:41;29.90;95.50
13174;DHT22;6652;48.802;9.190;2023-09-19T08:56:10;29.90;95.00
13174;DHT22;6652;48.802;9.190;2023-09-19T08:58:44;30.10;94.60
13174;DHT22;6652;48.802;9.190;2023-09-19T09:01:14;29.80;94.20
13174;DHT22;6652;48.802;9.190;2023-09-19T09:03:42;30.20;94.00
13174;DHT22;6652;48.802;9.190;2023-09-19T09:06:13;30.80;93.10
13174;DHT22;6652;48.802;9.190;2023-09-19T09:08:43;31.50;91.30
13174;DHT22;6652;48.802;9.190;2023-09-19T09:11:10;32.00;87.80
13174;DHT22;6652;48.802;9.190;2023-09-19T09:13:37;32.10;83.90
13174;DHT22;6652;48.802;9.190;2023-09-19T09:16:07;32.20;81.70
13174;DHT22;6652;48.802;9.190;2023-09-19T09:18:34;32.70;81.70
13174;DHT22;6652;48.802;9.190;2023-09-19T09:21:00;33.00;79.40
13174;DHT22;6652;48.802;9.190;2023-09-19T09:23:27;32.60;77.10
13174;DHT22;6652;48.802;9.190;2023-09-19T09:25:57;32.50;77.70
13174;DHT22;6652;48.802;9.190;2023-09-19T09:28:29;32.70;77.80
13174;DHT22;6652;48.802;9.190;2023-09-19T09:30:57;33.10;75.40
13174;DHT22;6652;48.802;9.190;2023-09-19T09:33:24;32.70;70.90
13174;DHT22;6652;48.802;9.190;2023-09-19T09:35:52;32.90;71.50
13174;DHT22;6652;48.802;9.190;2023-09-19T09:38:23;33.30;71.10
13174;DHT22;6652;48.802;9.190;2023-09-19T09:40:53;33.30;65.20
13174;DHT22;6652;48.802;9.190;2023-09-19T09:43:29;32.40;65.70
13174;DHT22;6652;48.802;9.190;2023-09-19T09:46:11;30.80;66.50
13174;DHT22;6652;48.802;9.190;2023-09-19T09:49:10;29.70;69.90
13174;DHT22;6652;48.802;9.190;2023-09-19T09:51:59;29.10;72.60
13174;DHT22;6652;48.802;9.190;2023-09-19T09:54:31;28.50;72.80
13174;DHT22;6652;48.802;9.190;2023-09-19T09:57:03;29.60;71.70
13174;DHT22;6652;48.802;9.190;2023-09-19T09:59:51;30.70;69.90
13174;DHT22;6652;48.802;9.190;2023-09-19T10:02:20;31.30;67.20
13174;DHT22;6652;48.802;9.190;2023-09-19T10:04:51;31.10;67.30
13174;DHT22;6652;48.802;9.190;2023-09-19T10:07:29;31.90;67.50
13174;DHT22;6652;48.802;9.190;2023-09-19T10:10:02;31.00;67.30
13174;DHT22;6652;48.802;9.190;2023-09-19T10:12:44;30.90;67.50
13174;DHT22;6652;48.802;9.190;2023-09-19T10:15:15;29.80;67.50
13174;DHT22;6652;48.802;9.190;2023-09-19T10:17:46;28.70;70.30
13174;DHT22;6652;48.802;9.190;2023-09-19T10:20:14;27.90;72.70
13174;DHT22;6652;48.802;9.190;2023-09-19T10:23:04;28.60;73.00
13174;DHT22;6652;48.802;9.190;2023-09-19T10:25:37;27.80;71.40
13174;DHT22;6652;48.802;9.190;2023-09-19T10:28:05;27.00;73.10
13174;DHT22;6652;48.802;9.190;2023-09-19T10:30:38;28.00;73.80
13174;DHT22;6652;48.802;9.190;2023-09-19T10:33:10;29.00;69.50
13174;DHT22;6652;48.802;9.190;2023-09-19T10:35:38;29.70;67.70
13174;DHT22;6652;48.802;9.190;2023-09-19T10:38:06;29.80;66.60
13174;DHT22;6652;48.802;9.190;2023-09-19T10:40:35;28.80;68.30
13174;DHT22;6652;48.802;9.190;2023-09-19T10:43:03;27.80;68.70
13174;DHT22;6652;48.802;9.190;2023-09-19T10:45:32;27.30;71.30
13174;DHT22;6652;48.802;9.190;2023-09-19T10:48:00;27.00;72.80
13174;DHT22;6652;48.802;9.190;2023-09-19T10:50:31;26.60;72.20
13174;DHT22;6652;48.802;9.190;2023-09-19T10:53:01;26.30;75.30
13174;DHT22;6652;48.802;9.190;2023-09-19T10:55:31;25.70;74.40
13174;DHT22;6652;48.802;9.190;2023-09-19T10:57:59;25.50;78.80
13174;DHT22;6652;48.802;9.190;2023-09-19T11:00:30;25.50;78.20
13174;DHT22;6652;48.802;9.190;2023-09-19T11:03:20;25.40;78.80
13174;DHT22;6652;48.802;9.190;2023-09-19T11:06:05;25.40;78.00
13174;DHT22;6652;48.802;9.190;2023-09-19T11:08:57;25.40;78.30
13174;DHT22;6652;48.802;9.190;2023-09-19T11:11:40;25.30;77.00
13174;DHT22;6652;48.802;9.190;2023-09-19T11:14:37;25.10;78.20
13174;DHT22;6652;48.802;9.190;2023-09-19T11:17:32;24.80;78.50
13174;DHT22;6652;48.802;9.190;2023-09-19T11:20:25;24.60;80.20
13174;DHT22;6652;48.802;9.190;2023-09-19T11:23:20;24.60;81.80
13174;DHT22;6652;48.802;9.190;2023-09-19T11:25:51;24.60;78.30
13174;DHT22;6652;48.802;9.190;2023-09-19T11:28:35;24.50;79.50
13174;DHT22;6652;48.802;9.190;2023-09-19T11:34:44;24.90;81.10
13174;DHT22;6652;48.802;9.190;2023-09-19T11:40:29;25.20;77.10
13174;DHT22;6652;48.802;9.190;2023-09-19T11:42:56;25.30;77.70
13174;DHT22;6652;48.802;9.190;2023-09-19T11:48:27;25.30;75.90
13174;DHT22;6652;48.802;9.190;2023-09-19T11:50:55;25.40;75.30
13174;DHT22;6652;48.802;9.190;2023-09-19T11:53:23;25.40;74.50
13174;DHT22;6652;48.802;9.190;2023-09-19T11:55:52;25.40;74.20
13174;DHT22;6652;48.802;9.190;2023-09-19T11:58:19;25.30;74.50
13174;DHT22;6652;48.802;9.190;2023-09-19T12:00:53;25.40;75.40
13174;DHT22;6652;48.802;9.190;2023-09-19T12:03:23;25.60;75.90
13174;DHT22;6652;48.802;9.190;2023-09-19T12:05:50;25.70;76.10
13174;DHT22;6652;48.802;9.190;2023-09-19T12:08:18;25.60;74.00
13174;DHT22;6652;48.802;9.190;2023-09-19T12:10:48;25.60;73.30
13174;DHT22;6652;48.802;9.190;2023-09-19T12:13:19;25.40;72.50
13174;DHT22;6652;48.802;9.190;2023-09-19T12:15:46;25.30;74.20
13174;DHT22;6652;48.802;9.190;2023-09-19T12:18:27;25.20;73.60
13174;DHT22;6652;48.802;9.190;2023-09-19T12:20:55;25.10;74.80
13174;DHT22;6652;48.802;9.190;2023-09-19T12:23:23;24.90;76.20
13174;DHT22;6652;48.802;9.190;2023-09-19T12:25:51;25.00;75.90
13174;DHT22;6652;48.802;9.190;2023-09-19T12:28:21;25.00;76.70
13174;DHT22;6652;48.802;9.190;2023-09-19T12:30:48;24.90;76.40
13174;DHT22;6652;48.802;9.190;2023-09-19T12:33:16;24.90;76.00
13174;DHT22;6652;48.802;9.190;2023-09-19T12:35:45;24.80;76.90
13174;DHT22;6652;48.802;9.190;2023-09-19T12:38:25;24.90;76.20
13174;DHT22;6652;48.802;9.190;2023-09-19T12:40:54;25.00;76.20
13174;DHT22;6652;48.802;9.190;2023-09-19T12:43:23;24.80;75.00
13174;DHT22;6652;48.802;9.190;2023-09-19T12:45:50;24.70;76.80
13174;DHT22;6652;48.802;9.190;2023-09-19T12:48:23;24.50;77.50
13174;DHT22;6652;48.802;9.190;2023-09-19T12:51:05;24.70;78.60
13174;DHT22;6652;48.802;9.190;2023-09-19T12:53:33;24.90;78.80
13174;DHT22;6652;48.802;9.190;2023-09-19T12:56:03;25.10;77.70
13174;DHT22;6652;48.802;9.190;2023-09-19T12:58:47;25.20;77.50
13174;DHT22;6652;48.802;9.190;2023-09-19T13:01:14;25.50;77.20
13174;DHT22;6652;48.802;9.190;2023-09-19T13:03:41;25.70;76.80
13174;DHT22;6652;48.802;9.190;2023-09-19T13:06:08;25.70;75.10
13174;DHT22;6652;48.802;9.190;2023-09-19T13:08:37;25.50;74.40
13174;DHT22;6652;48.802;9.190;2023-09-19T13:11:09;25.50;74.80
13174;DHT22;6652;48.802;9.190;2023-09-19T13:13:41;25.50;75.00
13174;DHT22;6652;48.802;9.190;2023-09-19T13:16:11;25.60;74.70
13174;DHT22;6652;48.802;9.190;2023-09-19T13:18:46;25.70;76.30
13174;DHT22;6652;48.802;9.190;2023-09-19T13:21:16;25.50;75.30
13174;DHT22;6652;48.802;9.190;2023-09-19T13:23:50;25.40;75.70
13174;DHT22;6652;48.802;9.190;2023-09-19T13:26:17;25.40;76.60
13174;DHT22;6652;48.802;9.190;2023-09-19T13:28:46;25.40;76.00
13174;DHT22;6652;48.802;9.190;2023-09-19T13:31:15;25.10;75.00
13174;DHT22;6652;48.802;9.190;2023-09-19T13:33:46;24.90;75.70
13174;DHT22;6652;48.802;9.190;2023-09-19T13:36:13;24.90;76.30
13174;DHT22;6652;48.802;9.190;2023-09-19T13:38:40;24.70;77.20
13174;DHT22;6652;48.802;9.190;2023-09-19T13:41:08;24.90;77.90
13174;DHT22;6652;48.802;9.190;2023-09-19T13:43:36;24.70;76.80
13174;DHT22;6652;48.802;9.190;2023-09-19T13:46:05;24.80;77.50
13174;DHT22;6652;48.802;9.190;2023-09-19T13:48:37;24.70;78.10
13174;DHT22;6652;48.802;9.190;2023-09-19T13:51:04;24.70;78.30
13174;DHT22;6652;48.802;9.190;2023-09-19T13:53:31;24.50;79.50
13174;DHT22;6652;48.802;9.190;2023-09-19T13:55:57;24.50;78.70
13174;DHT22;6652;48.802;9.190;2023-09-19T13:58:24;24.40;78.10
13174;DHT22;6652;48.802;9.190;2023-09-19T14:00:52;24.20;78.60
13174;DHT22;6652;48.802;9.190;2023-09-19T14:03:22;24.20;79.60
13174;DHT22;6652;48.802;9.190;2023-09-19T14:05:49;24.20;79.70
13174;DHT22;6652;48.802;9.190;2023-09-19T14:08:17;24.20;80.10
13174;DHT22;6652;48.802;9.190;2023-09-19T14:10:44;24.20;80.90
13174;DHT22;6652;48.802;9.190;2023-09-19T14:13:11;24.20;80.80
13174;DHT22;6652;48.802;9.190;2023-09-19T14:15:39;24.30;80.80
13174;DHT22;6652;48.802;9.190;2023-09-19T14:18:05;24.30;81.10
13174;DHT22;6652;48.802;9.190;2023-09-19T14:20:38;24.30;81.00
13174;DHT22;6652;48.802;9.190;2023-09-19T14:23:05;24.30;81.30
13174;DHT22;6652;48.802;9.190;2023-09-19T14:25:34;24.40;81.10
13174;DHT22;6652;48.802;9.190;2023-09-19T14:28:02;24.40;80.20
13174;DHT22;6652;48.802;9.190;2023-09-19T14:30:28;24.40;79.50
13174;DHT22;6652;48.802;9.190;2023-09-19T14:32:55;24.40;79.90
13174;DHT22;6652;48.802;9.190;2023-09-19T14:35:23;24.40;79.40
13174;DHT22;6652;48.802;9.190;2023-09-19T14:37:53;24.40;79.60
13174;DHT22;6652;48.802;9.190;2023-09-19T14:40:20;24.30;79.70
13174;DHT22;6652;48.802;9.190;2023-09-19T14:42:48;24.30;80.40
13174;DHT22;6652;48.802;9.190;2023-09-19T14:45:15;24.50;80.90
13174;DHT22;6652;48.802;9.190;2023-09-19T14:47:43;24.40;80.50
13174;DHT22;6652;48.802;9.190;2023-09-19T14:50:10;24.30;79.70
13174;DHT22;6652;48.802;9.190;2023-09-19T14:52:38;24.30;79.40
13174;DHT22;6652;48.802;9.190;2023-09-19T14:55:07;24.40;79.70
13174;DHT22;6652;48.802;9.190;2023-09-19T14:57:41;24.50;79.90
13174;DHT22;6652;48.802;9.190;2023-09-19T15:00:11;24.60;80.50
13174;DHT22;6652;48.802;9.190;2023-09-19T15:02:38;24.70;80.20
13174;DHT22;6652;48.802;9.190;2023-09-19T15:05:06;24.70;80.20
13174;DHT22;6652;48.802;9.190;2023-09-19T15:07:35;24.60;77.60
13174;DHT22;6652;48.802;9.190;2023-09-19T15:10:02;24.50;77.70
13174;DHT22;6652;48.802;9.190;2023-09-19T15:12:36;24.30;76.60
13174;DHT22;6652;48.802;9.190;2023-09-19T15:15:21;24.10;77.00
13174;DHT22;6652;48.802;9.190;2023-09-19T15:17:48;24.00;76.50
13174;DHT22;6652;48.802;9.190;2023-09-19T15:20:15;23.90;76.80
13174;DHT22;6652;48.802;9.190;2023-09-19T15:22:43;23.80;77.00
13174;DHT22;6652;48.802;9.190;2023-09-19T15:25:10;23.80;77.30
13174;DHT22;6652;48.802;9.190;2023-09-19T15:27:37;23.80;77.70
13174;DHT22;6652;48.802;9.190;2023-09-19T15:30:05;23.80;78.50
13174;DHT22;6652;48.802;9.190;2023-09-19T15:32:33;23.80;78.10
13174;DHT22;6652;48.802;9.190;2023-09-19T15:35:01;23.80;78.50
13174;DHT22;6652;48.802;9.190;2023-09-19T15:37:28;23.80;78.00
13174;DHT22;6652;48.802;9.190;2023-09-19T15:39:55;23.80;78.60
13174;DHT22;6652;48.802;9.190;2023-09-19T15:42:21;23.70;77.90
13174;DHT22;6652;48.802;9.190;2023-09-19T15:44:48;23.80;77.70
13174;DHT22;6652;48.802;9.190;2023-09-19T15:47:16;23.60;78.10
13174;DHT22;6652;48.802;9.190;2023-09-19T15:49:47;23.50;78.60
13174;DHT22;6652;48.802;9.190;2023-09-19T15:52:17;23.50;79.10
13174;DHT22;6652;48.802;9.190;2023-09-19T15:54:44;23.40;79.00
13174;DHT22;6652;48.802;9.190;2023-09-19T15:57:11;23.20;79.50
13174;DHT22;6652;48.802;9.190;2023-09-19T15:59:38;23.20;79.80
13174;DHT22;6652;48.802;9.190;2023-09-19T16:02:05;23.10;80.00
13174;DHT22;6652;48.802;9.190;2023-09-19T16:04:32;23.10;81.10
13174;DHT22;6652;48.802;9.190;2023-09-19T16:07:03;23.10;80.70
13174;DHT22;6652;48.802;9.190;2023-09-19T16:09:34;23.00;81.10